createdAt,value
2019-01-31T00:02:44.720Z,77.15
2019-01-31T00:05:19.225Z,77.00
2019-01-31T00:07:56.832Z,77.59
2019-01-31T00:11:00.260Z,77.45
2019-01-31T00:13:54.115Z,77.31
2019-01-31T00:16:31.399Z,77.47
2019-01-31T00:19:11.832Z,77.01
2019-01-31T00:21:55.395Z,76.81
2019-01-31T00:24:38.579Z,77.17
2019-01-31T00:27:16.362Z,77.41
2019-01-31T00:30:00.178Z,79.18
2019-01-31T00:32:52.828Z,77.37
2019-01-31T00:35:42.733Z,76.72
2019-01-31T00:38:17.275Z,76.97
2019-01-31T00:40:54.669Z,76.46
2019-01-31T00:43:38.360Z,77.27
2019-01-31T00:46:24.219Z,77.17
2019-01-31T00:49:18.121Z,77.49
2019-01-31T00:52:07.555Z,77.85
2019-01-31T00:54:45.294Z,77.21
2019-01-31T00:57:16.802Z,77.31
2019-01-31T00:59:51.104Z,77.12
2019-01-31T01:02:41.115Z,77.08
2019-01-31T01:05:37.090Z,79.84
2019-01-31T01:08:17.577Z,77.09
2019-01-31T01:10:52.069Z,75.71
2019-01-31T01:13:46.355Z,76.05
2019-01-31T01:16:20.535Z,76.72
2019-01-31T01:19:09.915Z,77.50
2019-01-31T01:21:59.533Z,76.97
2019-01-31T01:24:53.783Z,77.74
2019-01-31T01:27:37.171Z,77.57
2019-01-31T01:30:23.825Z,77.55
2019-01-31T01:33:03.871Z,77.65
2019-01-31T01:35:38.661Z,77.66
2019-01-31T01:38:15.942Z,77.38
2019-01-31T01:41:20.790Z,83.01
2019-01-31T01:44:10.430Z,78.25
2019-01-31T01:46:44.735Z,76.42
2019-01-31T01:49:21.925Z,75.99
2019-01-31T01:52:12.889Z,76.66
2019-01-31T01:54:56.288Z,76.99
2019-01-31T01:57:59.286Z,78.11
2019-01-31T02:00:33.812Z,77.51
2019-01-31T02:03:15.153Z,76.83
2019-01-31T02:06:03.149Z,76.96
2019-01-31T02:08:37.269Z,77.22
2019-01-31T02:11:20.602Z,76.92
2019-01-31T02:14:13.100Z,76.38
2019-01-31T02:16:56.495Z,78.01
2019-01-31T02:19:33.473Z,77.17
2019-01-31T02:22:10.687Z,76.40
2019-01-31T02:24:48.107Z,77.08
2019-01-31T02:27:19.630Z,76.73
2019-01-31T02:30:00.013Z,76.56
2019-01-31T02:32:34.548Z,76.66
2019-01-31T02:35:11.981Z,76.83
2019-01-31T02:37:43.508Z,76.93
2019-01-31T02:40:17.762Z,77.27
2019-01-31T02:42:52.256Z,77.37
2019-01-31T02:45:49.410Z,77.62
2019-01-31T02:48:20.905Z,77.31
2019-01-31T02:51:04.436Z,77.11
2019-01-31T02:53:50.942Z,78.32
2019-01-31T02:56:31.247Z,76.92
2019-01-31T02:59:08.520Z,76.69
2019-01-31T03:01:55.364Z,77.29
2019-01-31T03:04:29.574Z,77.42
2019-01-31T03:07:03.895Z,77.52
2019-01-31T03:09:54.552Z,77.44
2019-01-31T03:12:17.666Z,77.71
2019-01-31T03:14:49.351Z,78.37
2019-01-31T03:17:32.891Z,77.35
2019-01-31T03:20:13.329Z,77.46
2019-01-31T03:23:01.269Z,77.46
2019-01-31T03:25:38.587Z,77.42
2019-01-31T03:28:28.450Z,79.24
2019-01-31T03:31:15.145Z,78.65
2019-01-31T03:33:55.676Z,75.96
2019-01-31T03:36:36.046Z,75.56
2019-01-31T03:39:25.809Z,75.46
2019-01-31T03:42:00.073Z,76.26
2019-01-31T03:44:40.748Z,76.62
2019-01-31T03:47:12.269Z,76.97
2019-01-31T03:49:49.912Z,76.45
2019-01-31T03:52:44.369Z,75.29
2019-01-31T03:55:25.006Z,75.58
2019-01-31T03:58:20.791Z,74.93
2019-01-31T04:01:11.772Z,74.09
2019-01-31T04:03:49.092Z,75.72
2019-01-31T04:06:19.769Z,80.34
2019-01-31T04:08:48.310Z,74.51
2019-01-31T04:11:16.935Z,73.98
2019-01-31T04:13:45.451Z,73.98
2019-01-31T04:16:13.996Z,75.10
2019-01-31T04:18:42.594Z,76.74
2019-01-31T04:21:11.569Z,77.62
2019-01-31T04:23:40.223Z,77.33
2019-01-31T04:26:09.402Z,77.13
2019-01-31T04:28:37.980Z,76.68
2019-01-31T04:31:06.557Z,76.12
2019-01-31T04:33:35.168Z,76.39
2019-01-31T04:36:03.976Z,76.00
2019-01-31T04:38:32.582Z,75.88
2019-01-31T04:41:01.189Z,78.48
2019-01-31T04:43:29.760Z,73.74
2019-01-31T04:45:58.299Z,73.09
2019-01-31T04:48:26.885Z,73.22
2019-01-31T04:50:55.420Z,73.81
2019-01-31T04:53:24.010Z,75.98
2019-01-31T04:55:52.590Z,76.69
2019-01-31T04:58:21.232Z,77.45
2019-01-31T05:00:49.727Z,77.28
2019-01-31T05:03:18.319Z,77.37
2019-01-31T05:05:46.850Z,77.15
2019-01-31T05:08:15.377Z,76.77
2019-01-31T05:10:43.902Z,76.26
2019-01-31T05:13:12.530Z,76.17
2019-01-31T05:15:41.127Z,78.92
2019-01-31T05:18:09.638Z,77.83
2019-01-31T05:20:38.265Z,74.71
2019-01-31T05:23:06.830Z,74.93
2019-01-31T05:25:35.480Z,74.16
2019-01-31T05:28:04.056Z,75.10
2019-01-31T05:30:32.688Z,76.42
2019-01-31T05:33:01.339Z,76.53
2019-01-31T05:35:29.973Z,77.03
2019-01-31T05:37:58.488Z,76.66
2019-01-31T05:40:27.175Z,76.31
2019-01-31T05:42:55.658Z,75.78
2019-01-31T05:45:24.158Z,76.57
2019-01-31T05:47:52.721Z,76.00
2019-01-31T05:50:21.563Z,75.49
2019-01-31T05:52:50.106Z,76.52
2019-01-31T05:55:18.674Z,74.78
2019-01-31T05:57:47.288Z,73.73
2019-01-31T06:00:22.928Z,74.30
2019-01-31T06:02:51.476Z,74.38
2019-01-31T06:05:20.505Z,76.01
2019-01-31T06:07:49.495Z,76.21
2019-01-31T06:10:18.077Z,76.49
2019-01-31T06:12:46.679Z,75.76
2019-01-31T06:15:17.367Z,75.43
2019-01-31T06:17:45.898Z,75.47
2019-01-31T06:20:17.866Z,75.48
2019-01-31T06:22:46.471Z,75.26
2019-01-31T06:25:15.144Z,75.25
2019-01-31T06:27:43.734Z,83.15
2019-01-31T06:30:15.333Z,75.46
2019-01-31T06:32:43.964Z,72.62
2019-01-31T06:35:13.207Z,73.51
2019-01-31T06:37:41.784Z,72.89
2019-01-31T06:40:16.284Z,73.93
2019-01-31T06:42:45.190Z,74.87
2019-01-31T06:45:16.285Z,75.78
2019-01-31T06:47:44.899Z,75.27
2019-01-31T06:50:13.817Z,74.45
2019-01-31T06:52:42.397Z,74.30
2019-01-31T06:55:11.895Z,73.86
2019-01-31T06:57:40.483Z,73.39
2019-01-31T07:00:20.569Z,74.06
2019-01-31T07:02:49.433Z,75.70
2019-01-31T07:05:18.004Z,76.19
2019-01-31T07:07:46.614Z,72.84
2019-01-31T07:10:21.374Z,71.89
2019-01-31T07:12:50.026Z,72.75
2019-01-31T07:15:18.648Z,73.94
2019-01-31T07:17:47.218Z,74.63
2019-01-31T07:20:17.334Z,75.28
2019-01-31T07:22:46.223Z,75.22
2019-01-31T07:25:20.072Z,74.77
2019-01-31T07:27:48.659Z,74.11
2019-01-31T07:30:19.281Z,72.95
2019-01-31T07:32:47.850Z,72.83
2019-01-31T07:35:16.858Z,73.14
2019-01-31T07:37:45.529Z,72.55
2019-01-31T07:40:16.926Z,77.09
2019-01-31T07:42:46.064Z,73.04
2019-01-31T07:45:23.224Z,71.03
2019-01-31T07:47:51.762Z,71.39
2019-01-31T07:50:21.072Z,73.41
2019-01-31T07:52:49.750Z,73.12
2019-01-31T07:55:18.762Z,73.71
2019-01-31T07:57:47.339Z,74.34
2019-01-31T08:00:18.532Z,74.18
2019-01-31T08:02:47.144Z,73.57
2019-01-31T08:05:20.938Z,73.28
2019-01-31T08:07:50.043Z,73.41
2019-01-31T08:10:21.360Z,73.62
2019-01-31T08:12:50.008Z,73.50
2019-01-31T08:15:19.582Z,79.10
2019-01-31T08:17:48.032Z,73.99
2019-01-31T08:20:18.986Z,70.59
2019-01-31T08:22:47.555Z,70.00
2019-01-31T08:25:18.447Z,71.14
2019-01-31T08:27:48.953Z,72.42
2019-01-31T08:30:20.167Z,73.51
2019-01-31T08:32:48.843Z,74.25
2019-01-31T08:35:17.536Z,74.34
2019-01-31T08:37:46.109Z,73.92
2019-01-31T08:40:15.031Z,73.46
2019-01-31T08:42:43.638Z,72.74
2019-01-31T08:45:15.687Z,72.93
2019-01-31T08:47:44.573Z,72.16
2019-01-31T08:50:30.525Z,73.35
2019-01-31T08:52:59.138Z,70.78
2019-01-31T08:55:27.774Z,70.78
2019-01-31T08:57:56.387Z,69.48
2019-01-31T09:00:30.116Z,71.67
2019-01-31T09:02:59.318Z,72.67
2019-01-31T09:05:27.964Z,73.53
2019-01-31T09:07:57.085Z,73.25
2019-01-31T09:10:40.065Z,72.95
2019-01-31T09:13:10.327Z,72.95
2019-01-31T09:15:38.948Z,72.94
2019-01-31T09:18:07.986Z,72.53
2019-01-31T09:20:42.197Z,72.11
2019-01-31T09:23:34.911Z,72.42
2019-01-31T09:26:18.750Z,72.02
2019-01-31T09:28:58.929Z,71.75
2019-01-31T09:31:58.862Z,69.90
2019-01-31T09:34:38.936Z,68.66
2019-01-31T09:37:16.069Z,69.39
2019-01-31T09:40:04.060Z,70.44
2019-01-31T09:42:35.580Z,71.56
2019-01-31T09:45:13.610Z,71.71
2019-01-31T09:48:03.449Z,70.85
2019-01-31T09:50:43.822Z,71.17
2019-01-31T09:53:27.138Z,71.00
2019-01-31T09:56:13.597Z,70.48
2019-01-31T09:58:51.426Z,70.56
2019-01-31T10:01:22.964Z,71.19
2019-01-31T10:04:00.413Z,71.94
2019-01-31T10:06:31.904Z,69.94
2019-01-31T10:09:21.303Z,67.25
2019-01-31T10:11:55.579Z,67.79
2019-01-31T10:14:47.786Z,69.63
2019-01-31T10:17:40.787Z,69.61
2019-01-31T10:20:21.175Z,70.64
2019-01-31T10:22:58.744Z,70.76
2019-01-31T10:25:48.378Z,69.93
2019-01-31T10:28:19.869Z,69.79
2019-01-31T10:31:00.136Z,69.99
2019-01-31T10:33:34.211Z,69.99
2019-01-31T10:36:08.293Z,69.81
2019-01-31T10:38:39.794Z,73.84
2019-01-31T10:41:14.054Z,69.77
2019-01-31T10:43:48.391Z,68.60
2019-01-31T10:46:37.943Z,67.07
2019-01-31T10:49:21.262Z,67.99
2019-01-31T10:52:16.690Z,68.99
2019-01-31T10:55:15.776Z,69.04
2019-01-31T10:57:56.393Z,68.28
2019-01-31T11:00:30.868Z,67.75
2019-01-31T11:03:16.871Z,66.33
2019-01-31T11:06:04.925Z,66.01
2019-01-31T11:08:38.903Z,65.29
2019-01-31T11:11:19.314Z,66.59
2019-01-31T11:13:56.709Z,68.55
2019-01-31T11:16:37.082Z,67.92
2019-01-31T11:19:26.401Z,64.09
2019-01-31T11:22:15.796Z,63.35
2019-01-31T11:24:47.287Z,64.08
2019-01-31T11:27:50.867Z,65.28
2019-01-31T11:30:54.011Z,66.16
2019-01-31T11:33:55.439Z,65.48
2019-01-31T11:36:29.994Z,64.41
2019-01-31T11:39:20.439Z,65.20
2019-01-31T11:42:08.457Z,64.97
2019-01-31T11:45:01.328Z,64.41
2019-01-31T11:47:44.075Z,64.56
2019-01-31T11:50:33.847Z,64.77
2019-01-31T11:53:08.245Z,64.18
2019-01-31T11:55:45.377Z,62.29
2019-01-31T11:58:28.996Z,63.54
2019-01-31T12:00:57.634Z,64.95
2019-01-31T12:03:26.213Z,66.34
2019-01-31T12:05:54.755Z,66.20
2019-01-31T12:08:23.365Z,66.19
2019-01-31T12:10:52.059Z,66.09
2019-01-31T12:13:23.629Z,66.46
2019-01-31T12:15:50.906Z,66.79
2019-01-31T12:18:19.396Z,66.53
2019-01-31T12:20:47.907Z,66.08
2019-01-31T12:23:16.507Z,65.79
2019-01-31T12:25:45.179Z,68.27
2019-01-31T12:28:13.752Z,66.65
2019-01-31T12:30:42.387Z,66.62
2019-01-31T12:33:10.894Z,65.43
2019-01-31T12:35:39.715Z,66.00
2019-01-31T12:38:08.481Z,66.58
2019-01-31T12:40:37.097Z,66.94
2019-01-31T12:43:05.810Z,67.70
2019-01-31T12:45:34.419Z,68.37
2019-01-31T12:48:03.103Z,68.30
2019-01-31T12:50:31.666Z,68.12
2019-01-31T12:53:00.279Z,67.12
2019-01-31T12:55:28.871Z,67.70
2019-01-31T12:57:57.499Z,67.92
2019-01-31T13:00:27.712Z,69.06
2019-01-31T13:02:56.342Z,70.98
2019-01-31T13:05:25.020Z,67.13
2019-01-31T13:07:53.499Z,66.33
2019-01-31T13:10:22.327Z,67.47
2019-01-31T13:12:51.317Z,67.97
2019-01-31T13:15:20.174Z,68.64
2019-01-31T13:17:49.393Z,69.52
2019-01-31T13:20:23.052Z,67.98
2019-01-31T13:22:56.123Z,67.98
2019-01-31T13:25:26.324Z,67.89
2019-01-31T13:27:54.908Z,68.37
2019-01-31T13:30:25.196Z,67.83
2019-01-31T13:32:55.717Z,67.16
2019-01-31T13:35:24.392Z,67.89
2019-01-31T13:37:52.970Z,70.79
2019-01-31T13:40:26.294Z,68.37
2019-01-31T13:42:55.901Z,67.06
2019-01-31T13:45:32.574Z,66.66
2019-01-31T13:48:03.184Z,67.96
2019-01-31T13:50:31.775Z,68.87
2019-01-31T13:53:00.867Z,69.34
2019-01-31T13:55:31.295Z,68.85
2019-01-31T13:57:59.805Z,69.24
2019-01-31T14:00:28.381Z,69.63
2019-01-31T14:02:56.886Z,69.88
2019-01-31T14:05:25.640Z,69.96
2019-01-31T14:07:54.511Z,69.71
2019-01-31T14:10:25.192Z,69.94
2019-01-31T14:12:54.218Z,72.70
2019-01-31T14:15:33.400Z,71.22
2019-01-31T14:17:58.356Z,70.16
2019-01-31T14:20:28.567Z,68.92
2019-01-31T14:22:57.352Z,70.45
2019-01-31T14:25:25.973Z,70.56
2019-01-31T14:27:54.552Z,69.92
2019-01-31T14:30:32.239Z,70.11
2019-01-31T14:33:01.287Z,69.61
2019-01-31T14:35:30.331Z,69.21
2019-01-31T14:37:58.930Z,68.61
2019-01-31T14:40:28.549Z,68.21
2019-01-31T14:42:57.434Z,67.62
2019-01-31T14:45:26.127Z,68.20
2019-01-31T14:47:55.914Z,68.85
2019-01-31T14:50:27.764Z,70.01
2019-01-31T14:52:57.014Z,68.16
2019-01-31T14:55:25.690Z,66.91
2019-01-31T14:57:54.567Z,68.16
2019-01-31T15:00:25.384Z,69.89
2019-01-31T15:02:53.960Z,70.61
2019-01-31T15:05:22.573Z,71.15
2019-01-31T15:07:51.244Z,70.64
2019-01-31T15:10:22.465Z,69.99
2019-01-31T15:12:51.351Z,70.50
2019-01-31T15:15:19.963Z,70.04
2019-01-31T15:17:48.602Z,69.65
2019-01-31T15:20:37.562Z,70.28
2019-01-31T15:22:59.512Z,70.44
2019-01-31T15:25:28.098Z,73.60
2019-01-31T15:27:56.814Z,70.55
2019-01-31T15:30:33.674Z,69.15
2019-01-31T15:33:03.789Z,68.76
2019-01-31T15:35:32.463Z,70.88
2019-01-31T15:38:01.063Z,71.73
2019-01-31T15:40:35.323Z,72.01
2019-01-31T15:43:04.648Z,71.75
2019-01-31T15:45:33.277Z,71.16
2019-01-31T15:48:01.875Z,71.07
2019-01-31T15:50:30.865Z,71.43
2019-01-31T15:52:59.481Z,71.35
2019-01-31T15:55:28.574Z,71.19
2019-01-31T15:57:57.418Z,70.77
2019-01-31T16:00:38.743Z,71.95
2019-01-31T16:03:09.238Z,72.85
2019-01-31T16:05:38.058Z,70.74
2019-01-31T16:08:07.273Z,70.62
2019-01-31T16:10:36.718Z,72.28
2019-01-31T16:13:05.844Z,73.71
2019-01-31T16:15:34.636Z,73.46
2019-01-31T16:18:03.255Z,73.27
2019-01-31T16:20:31.832Z,72.96
2019-01-31T16:23:00.642Z,72.78
2019-01-31T16:25:29.313Z,72.63
2019-01-31T16:27:58.050Z,72.68
2019-01-31T16:30:26.707Z,72.71
2019-01-31T16:32:55.407Z,72.27
2019-01-31T16:35:23.999Z,72.55
2019-01-31T16:37:53.209Z,76.53
2019-01-31T16:40:21.775Z,72.59
2019-01-31T16:42:50.402Z,71.50
2019-01-31T16:45:18.978Z,72.24
2019-01-31T16:47:47.595Z,73.59
2019-01-31T16:50:18.022Z,74.87
2019-01-31T16:52:46.734Z,75.01
2019-01-31T16:55:17.477Z,74.64
2019-01-31T16:57:46.303Z,74.30
2019-01-31T17:00:20.912Z,73.86
2019-01-31T17:02:49.496Z,73.44
2019-01-31T17:05:20.707Z,72.93
2019-01-31T17:07:49.400Z,72.56
2019-01-31T17:10:18.011Z,72.52
2019-01-31T17:12:46.653Z,79.99
2019-01-31T17:15:18.255Z,75.87
2019-01-31T17:17:47.246Z,73.11
2019-01-31T17:20:21.608Z,72.94
2019-01-31T17:22:50.186Z,74.37
2019-01-31T17:25:18.772Z,76.24
2019-01-31T17:27:47.405Z,76.59
2019-01-31T17:30:21.428Z,76.43
2019-01-31T17:32:50.256Z,75.59
2019-01-31T17:35:18.873Z,75.05
2019-01-31T17:37:47.450Z,74.45
2019-01-31T17:40:18.874Z,73.54
2019-01-31T17:42:47.536Z,73.25
2019-01-31T17:45:29.522Z,73.90
2019-01-31T17:47:49.137Z,75.86
2019-01-31T17:50:18.021Z,75.93
2019-01-31T17:52:46.664Z,73.55
2019-01-31T17:55:17.645Z,72.36
2019-01-31T17:57:46.258Z,71.74
2019-01-31T18:00:24.288Z,73.17
2019-01-31T18:02:51.826Z,74.21
2019-01-31T18:05:20.491Z,73.82
2019-01-31T18:07:49.121Z,73.66
2019-01-31T18:10:23.982Z,73.90
2019-01-31T18:12:52.571Z,72.93
2019-01-31T18:15:21.247Z,73.61
2019-01-31T18:17:50.346Z,73.73
2019-01-31T18:20:23.546Z,73.18
2019-01-31T18:22:52.279Z,73.49
2019-01-31T18:25:20.875Z,76.46
2019-01-31T18:27:49.514Z,73.38
2019-01-31T18:30:23.383Z,72.37
2019-01-31T18:32:51.976Z,72.29
2019-01-31T18:35:20.690Z,74.56
2019-01-31T18:37:49.305Z,75.05
2019-01-31T18:40:20.718Z,75.43
2019-01-31T18:42:49.527Z,74.79
2019-01-31T18:45:23.114Z,74.63
2019-01-31T18:47:51.677Z,73.95
2019-01-31T18:50:28.755Z,73.32
2019-01-31T18:52:57.595Z,73.46
2019-01-31T18:55:26.897Z,73.05
2019-01-31T18:57:55.537Z,72.34
2019-01-31T19:00:32.557Z,77.97
2019-01-31T19:03:01.154Z,75.25
2019-01-31T19:05:30.453Z,72.20
2019-01-31T19:07:59.082Z,72.06
2019-01-31T19:10:27.692Z,72.38
2019-01-31T19:12:56.445Z,74.44
2019-01-31T19:15:26.582Z,75.95
2019-01-31T19:18:05.487Z,76.65
2019-01-31T19:20:30.101Z,75.75
2019-01-31T19:23:00.864Z,75.10
2019-01-31T19:25:32.164Z,74.06
2019-01-31T19:28:00.332Z,73.96
2019-01-31T19:30:33.632Z,73.75
2019-01-31T19:33:02.446Z,73.32
2019-01-31T19:35:31.329Z,74.44
2019-01-31T19:38:02.372Z,78.16
2019-01-31T19:40:32.466Z,73.99
2019-01-31T19:43:01.121Z,72.56
2019-01-31T19:45:40.573Z,73.26
2019-01-31T19:48:09.463Z,75.06
2019-01-31T19:50:38.390Z,75.87
2019-01-31T19:53:07.397Z,76.30
2019-01-31T19:55:36.155Z,75.67
2019-01-31T19:58:05.638Z,74.75
2019-01-31T20:00:34.543Z,75.29
2019-01-31T20:03:03.236Z,74.86
2019-01-31T20:05:31.834Z,74.83
2019-01-31T20:08:01.887Z,74.88
2019-01-31T20:10:31.827Z,74.32
2019-01-31T20:13:00.818Z,82.28
2019-01-31T20:15:30.146Z,74.95
2019-01-31T20:17:58.947Z,72.87
2019-01-31T20:20:30.630Z,72.24
2019-01-31T20:22:59.961Z,74.00
2019-01-31T20:25:30.269Z,75.81
2019-01-31T20:27:59.019Z,75.69
2019-01-31T20:30:30.198Z,76.70
2019-01-31T20:33:00.019Z,76.71
2019-01-31T20:35:28.921Z,76.13
2019-01-31T20:37:57.653Z,75.44
2019-01-31T20:40:29.049Z,74.82
2019-01-31T20:42:57.865Z,74.69
2019-01-31T20:45:26.852Z,74.16
2019-01-31T20:47:55.521Z,75.76
2019-01-31T20:50:26.527Z,75.81
2019-01-31T20:52:55.296Z,71.83
2019-01-31T20:55:25.283Z,71.83
2019-01-31T20:57:53.920Z,71.92
2019-01-31T21:00:34.735Z,73.57
2019-01-31T21:03:04.766Z,74.68
2019-01-31T21:05:33.451Z,75.03
2019-01-31T21:08:02.279Z,75.11
2019-01-31T21:10:31.199Z,75.26
2019-01-31T21:12:59.921Z,74.71
2019-01-31T21:15:28.431Z,74.29
2019-01-31T21:17:57.134Z,73.56
2019-01-31T21:20:26.936Z,73.34
2019-01-31T21:22:55.932Z,73.89
2019-01-31T21:25:24.732Z,77.87
2019-01-31T21:27:53.556Z,73.36
2019-01-31T21:30:25.183Z,72.43
2019-01-31T21:32:53.968Z,72.28
2019-01-31T21:35:23.198Z,73.55
2019-01-31T21:37:51.820Z,75.36
2019-01-31T21:40:22.131Z,75.45
2019-01-31T21:42:50.897Z,76.53
2019-01-31T21:45:21.415Z,76.19
2019-01-31T21:47:49.995Z,76.10
2019-01-31T21:50:20.869Z,75.30
2019-01-31T21:52:49.809Z,74.82
2019-01-31T21:55:18.485Z,74.15
2019-01-31T21:57:47.156Z,74.50
2019-01-31T22:00:21.735Z,77.56
2019-01-31T22:02:50.360Z,76.20
2019-01-31T22:05:19.155Z,73.04
2019-01-31T22:07:47.732Z,73.18
2019-01-31T22:10:18.643Z,73.32
2019-01-31T22:12:47.431Z,74.56
2019-01-31T22:15:27.248Z,74.78
2019-01-31T22:17:59.788Z,74.84
2019-01-31T22:23:02.139Z,74.96
2019-01-31T22:25:30.733Z,74.79
2019-01-31T22:27:59.401Z,74.37
2019-01-31T22:30:33.296Z,74.15
2019-01-31T22:33:02.023Z,74.09
2019-01-31T22:35:30.615Z,76.94
2019-01-31T22:37:59.206Z,75.04
2019-01-31T22:40:27.824Z,72.65
2019-01-31T22:42:56.508Z,72.74
2019-01-31T22:45:25.751Z,72.49
2019-01-31T22:47:54.466Z,73.41
2019-01-31T22:50:23.900Z,73.82
2019-01-31T22:52:52.622Z,74.61
2019-01-31T22:55:26.131Z,73.96
2019-01-31T22:57:54.896Z,73.60
2019-01-31T23:00:30.977Z,72.51
2019-01-31T23:02:59.558Z,72.83
2019-01-31T23:05:28.179Z,73.30
2019-01-31T23:07:56.781Z,73.00
2019-01-31T23:10:25.297Z,73.88
2019-01-31T23:12:53.932Z,77.49
2019-01-31T23:15:22.523Z,74.80
2019-01-31T23:17:51.420Z,72.42
2019-01-31T23:20:20.057Z,72.24
2019-01-31T23:22:48.591Z,73.50
2019-01-31T23:25:17.099Z,74.24
2019-01-31T23:27:45.691Z,73.90
2019-01-31T23:30:16.113Z,73.79
2019-01-31T23:32:45.035Z,73.97
2019-01-31T23:35:13.744Z,73.38
2019-01-31T23:37:42.455Z,73.63
2019-01-31T23:40:12.784Z,73.68
2019-01-31T23:42:42.848Z,72.98
2019-01-31T23:45:14.265Z,72.66
2019-01-31T23:47:48.780Z,74.77
2019-01-31T23:50:13.511Z,74.11
2019-01-31T23:52:42.228Z,72.08
2019-01-31T23:55:17.715Z,72.85
2019-01-31T23:57:46.650Z,72.79
